createdAt,value
2022-12-05T00:00:09.566Z,101446.15
2022-12-05T00:02:57.309Z,101442.48
2022-12-05T00:05:25.139Z,101441.50
2022-12-05T00:07:52.971Z,101438.61
2022-12-05T00:10:20.805Z,101442.58
2022-12-05T00:12:49.074Z,101448.78
2022-12-05T00:15:17.170Z,101446.72
2022-12-05T00:17:44.961Z,101445.69
2022-12-05T00:20:12.855Z,101441.25
2022-12-05T00:22:40.620Z,101447.77
2022-12-05T00:25:09.022Z,101447.59
2022-12-05T00:27:36.880Z,101446.48
2022-12-05T00:30:05.993Z,101445.19
2022-12-05T00:32:33.865Z,101444.75
2022-12-05T00:35:01.627Z,101449.80
2022-12-05T00:37:29.648Z,101449.31
2022-12-05T00:39:57.845Z,101455.02
2022-12-05T00:42:25.795Z,101458.30
2022-12-05T00:44:53.672Z,101458.95
2022-12-05T00:47:21.429Z,101460.06
2022-12-05T00:49:49.201Z,101460.41
2022-12-05T00:52:17.134Z,101459.85
2022-12-05T00:54:44.923Z,101451.23
2022-12-05T00:57:12.807Z,101449.25
2022-12-05T00:59:40.628Z,101451.08
2022-12-05T01:02:08.379Z,101451.27
2022-12-05T01:04:36.756Z,101451.78
2022-12-05T01:07:04.982Z,101452.50
2022-12-05T01:09:32.763Z,101455.90
2022-12-05T01:12:00.665Z,101460.08
2022-12-05T01:14:29.144Z,101458.21
2022-12-05T01:16:57.120Z,101453.90
2022-12-05T01:19:32.425Z,101451.45
2022-12-05T01:22:00.287Z,101449.10
2022-12-05T01:24:29.838Z,101450.67
2022-12-05T01:26:58.767Z,101452.00
2022-12-05T01:29:28.372Z,101449.20
2022-12-05T01:31:56.630Z,101449.89
2022-12-05T01:34:24.668Z,101445.99
2022-12-05T01:36:52.885Z,101442.60
2022-12-05T01:39:20.678Z,101443.92
2022-12-05T01:41:50.049Z,101446.25
2022-12-05T01:44:17.788Z,101447.54
2022-12-05T01:46:51.044Z,101451.81
2022-12-05T01:49:37.778Z,101453.25
2022-12-05T01:52:18.350Z,101454.92
2022-12-05T01:54:48.142Z,101454.30
2022-12-05T01:57:16.285Z,101449.13
2022-12-05T01:59:47.907Z,101444.83
2022-12-05T02:02:16.311Z,101447.40
2022-12-05T02:05:04.607Z,101444.84
2022-12-05T02:07:33.945Z,101446.21
2022-12-05T02:10:01.921Z,101452.03
2022-12-05T02:12:29.972Z,101449.10
2022-12-05T02:15:09.697Z,101449.83
2022-12-05T02:17:49.573Z,101443.65
2022-12-05T02:20:32.391Z,101434.43
2022-12-05T02:23:27.521Z,101434.77
2022-12-05T02:26:13.910Z,101438.01
2022-12-05T02:29:13.932Z,101434.48
2022-12-05T02:31:51.700Z,101440.99
2022-12-05T02:34:31.669Z,101443.40
2022-12-05T02:37:11.004Z,101444.63
2022-12-05T02:39:41.856Z,101437.82
2022-12-05T02:42:21.694Z,101438.13
2022-12-05T02:44:59.552Z,101425.98
2022-12-05T02:47:31.818Z,101430.20
2022-12-05T02:50:00.595Z,101437.59
2022-12-05T02:52:30.526Z,101441.61
2022-12-05T02:55:00.141Z,101439.77
2022-12-05T02:57:28.060Z,101435.84
2022-12-05T02:59:56.133Z,101441.36
2022-12-05T03:02:27.948Z,101448.00
2022-12-05T03:05:02.167Z,101442.89
2022-12-05T03:07:31.961Z,101439.73
2022-12-05T03:10:05.818Z,101434.48
2022-12-05T03:12:49.324Z,101440.85
2022-12-05T03:15:22.900Z,101438.07
2022-12-05T03:18:13.551Z,101428.98
2022-12-05T03:21:16.340Z,101426.14
2022-12-05T03:23:58.198Z,101422.77
2022-12-05T03:26:42.462Z,101425.69
2022-12-05T03:30:06.142Z,101428.18
2022-12-05T03:32:44.068Z,101427.06
2022-12-05T03:35:36.748Z,101428.75
2022-12-05T03:38:35.194Z,101427.12
2022-12-05T03:41:23.030Z,101423.60
2022-12-05T03:44:29.329Z,101420.98
2022-12-05T03:47:06.825Z,101424.28
2022-12-05T03:49:45.854Z,101424.36
2022-12-05T03:52:19.696Z,101418.44
2022-12-05T03:54:53.438Z,101415.15
2022-12-05T03:57:35.988Z,101409.48
2022-12-05T04:00:04.267Z,101408.52
2022-12-05T04:02:52.560Z,101410.55
2022-12-05T04:05:48.285Z,101413.36
2022-12-05T04:08:26.432Z,101407.48
2022-12-05T04:10:59.585Z,101402.02
2022-12-05T04:13:33.259Z,101400.80
2022-12-05T04:16:29.312Z,101407.65
2022-12-05T04:19:09.996Z,101404.30
2022-12-05T04:21:43.402Z,101403.70
2022-12-05T04:24:39.696Z,101403.45
2022-12-05T04:27:11.105Z,101405.61
2022-12-05T04:30:02.706Z,101405.19
2022-12-05T04:32:37.967Z,101404.05
2022-12-05T04:35:14.158Z,101402.64
2022-12-05T04:37:45.751Z,101400.91
2022-12-05T04:40:23.362Z,101398.27
2022-12-05T04:42:54.784Z,101399.92
2022-12-05T04:45:25.898Z,101397.17
2022-12-05T04:48:00.187Z,101405.95
2022-12-05T04:50:32.264Z,101397.09
2022-12-05T04:53:02.513Z,101398.73
2022-12-05T04:55:33.348Z,101403.80
2022-12-05T04:58:24.343Z,101408.13
2022-12-05T05:00:56.372Z,101412.83
2022-12-05T05:03:36.610Z,101413.55
2022-12-05T05:06:04.967Z,101411.85
2022-12-05T05:08:32.901Z,101404.65
2022-12-05T05:11:18.964Z,101400.29
2022-12-05T05:13:47.607Z,101398.02
2022-12-05T05:16:25.371Z,101402.08
2022-12-05T05:18:54.228Z,101399.48
2022-12-05T05:21:31.585Z,101399.30
2022-12-05T05:24:00.390Z,101402.03
2022-12-05T05:26:30.442Z,101395.75
2022-12-05T05:28:58.726Z,101395.98
2022-12-05T05:31:27.222Z,101396.16
2022-12-05T05:33:57.575Z,101397.18
2022-12-05T05:36:28.103Z,101396.30
2022-12-05T05:38:58.418Z,101398.38
2022-12-05T05:41:31.578Z,101398.61
2022-12-05T05:44:01.346Z,101401.27
2022-12-05T05:46:32.449Z,101395.35
2022-12-05T05:49:02.162Z,101397.23
2022-12-05T05:51:30.807Z,101404.80
2022-12-05T05:53:59.838Z,101403.73
2022-12-05T05:56:29.844Z,101400.23
2022-12-05T05:59:08.054Z,101402.77
2022-12-05T06:01:36.367Z,101398.42
2022-12-05T06:04:05.243Z,101392.11
2022-12-05T06:06:33.340Z,101390.33
2022-12-05T06:09:01.264Z,101390.81
2022-12-05T06:11:29.235Z,101384.84
2022-12-05T06:14:00.868Z,101393.00
2022-12-05T06:16:30.417Z,101394.64
2022-12-05T06:18:58.972Z,101393.59
2022-12-05T06:21:27.286Z,101393.09
2022-12-05T06:23:55.522Z,101390.94
2022-12-05T06:26:23.358Z,101388.99
2022-12-05T06:28:51.405Z,101392.60
2022-12-05T06:31:22.455Z,101393.55
2022-12-05T06:33:50.529Z,101398.61
2022-12-05T06:36:21.257Z,101398.05
2022-12-05T06:38:49.464Z,101398.70
2022-12-05T06:41:20.205Z,101402.95
2022-12-05T06:43:48.267Z,101403.52
2022-12-05T06:46:16.280Z,101405.81
2022-12-05T06:48:44.636Z,101410.68
2022-12-05T06:51:15.225Z,101408.96
2022-12-05T06:53:43.748Z,101409.95
2022-12-05T06:56:14.975Z,101413.20
2022-12-05T06:58:44.784Z,101410.81
2022-12-05T07:01:37.053Z,101407.95
2022-12-05T07:04:07.914Z,101405.48
2022-12-05T07:06:35.930Z,101407.01
2022-12-05T07:09:04.652Z,101410.84
2022-12-05T07:11:32.934Z,101407.23
2022-12-05T07:14:07.176Z,101402.30
2022-12-05T07:16:38.393Z,101405.35
2022-12-05T07:19:06.236Z,101408.45
2022-12-05T07:21:34.014Z,101411.54
2022-12-05T07:24:02.482Z,101410.67
2022-12-05T07:26:33.121Z,101410.45
2022-12-05T07:29:02.641Z,101414.06
2022-12-05T07:31:30.932Z,101418.77
2022-12-05T07:33:58.946Z,101424.89
2022-12-05T07:36:26.725Z,101422.88
2022-12-05T07:38:57.058Z,101419.77
2022-12-05T07:41:29.083Z,101415.97
2022-12-05T07:44:00.103Z,101409.27
2022-12-05T07:46:29.653Z,101413.54
2022-12-05T07:48:58.115Z,101421.65
2022-12-05T07:51:25.995Z,101417.21
2022-12-05T07:53:53.833Z,101411.48
2022-12-05T07:56:21.762Z,101415.03
2022-12-05T07:58:50.986Z,101410.61
2022-12-05T08:01:24.743Z,101407.72
2022-12-05T08:03:54.801Z,101415.70
2022-12-05T08:06:26.790Z,101417.59
2022-12-05T08:08:55.396Z,101415.59
2022-12-05T08:11:25.912Z,101416.42
2022-12-05T08:13:54.176Z,101418.54
2022-12-05T08:16:30.311Z,101421.95
2022-12-05T08:19:01.423Z,101420.14
2022-12-05T08:21:29.743Z,101423.55
2022-12-05T08:23:58.090Z,101423.59
2022-12-05T08:26:30.749Z,101420.56
2022-12-05T08:29:07.791Z,101414.14
2022-12-05T08:31:40.790Z,101418.09
2022-12-05T08:34:11.814Z,101421.13
2022-12-05T08:36:40.446Z,101425.95
2022-12-05T08:39:12.073Z,101424.45
2022-12-05T08:41:39.832Z,101421.02
2022-12-05T08:44:08.925Z,101424.69
2022-12-05T08:46:38.621Z,101425.92
2022-12-05T08:49:06.777Z,101419.23
2022-12-05T08:51:34.945Z,101420.95
2022-12-05T08:54:04.916Z,101429.09
2022-12-05T08:56:35.585Z,101427.94
2022-12-05T08:59:06.041Z,101430.31
2022-12-05T09:01:38.414Z,101433.63
2022-12-05T09:04:07.750Z,101429.63
2022-12-05T09:06:36.671Z,101429.49
2022-12-05T09:09:07.704Z,101425.43
2022-12-05T09:11:40.954Z,101428.42
2022-12-05T09:14:08.986Z,101429.62
2022-12-05T09:16:39.351Z,101426.79
2022-12-05T09:19:14.680Z,101424.89
2022-12-05T09:21:43.475Z,101427.13
2022-12-05T09:24:13.270Z,101421.65
2022-12-05T09:26:41.871Z,101417.53
2022-12-05T09:29:16.611Z,101414.27
2022-12-05T09:31:47.843Z,101412.91
2022-12-05T09:34:18.384Z,101412.88
2022-12-05T09:36:55.840Z,101412.45
2022-12-05T09:39:29.357Z,101411.92
2022-12-05T09:42:24.877Z,101415.19
2022-12-05T09:45:12.622Z,101419.41
2022-12-05T09:48:01.073Z,101426.11
2022-12-05T09:50:32.312Z,101429.34
2022-12-05T09:53:09.234Z,101420.23
2022-12-05T09:56:09.731Z,101416.61
2022-12-05T09:58:47.671Z,101414.63
2022-12-05T10:01:15.746Z,101424.64
2022-12-05T10:04:08.257Z,101428.04
2022-12-05T10:06:51.370Z,101427.09
2022-12-05T10:09:28.514Z,101424.98
2022-12-05T10:12:15.230Z,101423.17
2022-12-05T10:14:52.234Z,101415.30
2022-12-05T10:17:35.204Z,101407.48
2022-12-05T10:20:16.429Z,101399.02
2022-12-05T10:22:50.361Z,101390.73
2022-12-05T10:25:24.777Z,101394.30
2022-12-05T10:27:56.741Z,101395.48
2022-12-05T10:30:30.091Z,101389.58
2022-12-05T10:33:06.462Z,101383.61
2022-12-05T10:35:40.201Z,101377.30
2022-12-05T10:38:29.074Z,101372.47
2022-12-05T10:41:05.769Z,101372.66
2022-12-05T10:43:37.258Z,101374.19
2022-12-05T10:46:07.844Z,101367.74
2022-12-05T10:48:39.111Z,101360.49
2022-12-05T10:51:11.468Z,101358.11
2022-12-05T10:53:41.569Z,101352.91
2022-12-05T10:56:39.534Z,101348.39
2022-12-05T10:59:10.130Z,101344.80
2022-12-05T11:01:45.104Z,101344.56
2022-12-05T11:04:43.460Z,101340.27
2022-12-05T11:07:26.390Z,101349.73
2022-12-05T11:09:54.582Z,101360.02
2022-12-05T11:12:27.045Z,101364.10
2022-12-05T11:14:56.682Z,101364.33
2022-12-05T11:17:32.514Z,101362.87
2022-12-05T11:20:00.934Z,101370.50
2022-12-05T11:22:35.133Z,101371.11
2022-12-05T11:25:24.610Z,101370.98
2022-12-05T11:27:53.579Z,101371.60
2022-12-05T11:30:28.044Z,101365.95
2022-12-05T11:33:24.844Z,101365.20
2022-12-05T11:35:54.635Z,101362.89
2022-12-05T11:38:28.011Z,101362.02
2022-12-05T11:41:34.111Z,101360.15
2022-12-05T11:44:13.996Z,101362.49
2022-12-05T11:47:03.759Z,101360.80
2022-12-05T11:49:52.989Z,101359.03
2022-12-05T11:52:48.634Z,101347.55
2022-12-05T11:55:24.706Z,101345.34
2022-12-05T11:58:10.747Z,101344.00
2022-12-05T12:00:50.731Z,101343.13
2022-12-05T12:03:34.588Z,101336.98
2022-12-05T12:06:12.787Z,101338.98
2022-12-05T12:08:56.741Z,101341.75
2022-12-05T12:11:46.871Z,101346.08
2022-12-05T12:14:42.746Z,101346.81
2022-12-05T12:17:39.077Z,101344.73
2022-12-05T12:20:22.284Z,101334.38
2022-12-05T12:23:14.807Z,101328.16
2022-12-05T12:26:16.565Z,101325.66
2022-12-05T12:29:07.467Z,101321.87
2022-12-05T12:31:49.981Z,101320.48
2022-12-05T12:34:36.123Z,101316.02
2022-12-05T12:37:24.301Z,101320.20
2022-12-05T12:39:58.891Z,101321.64
2022-12-05T12:42:58.014Z,101320.13
2022-12-05T12:45:49.028Z,101315.67
2022-12-05T12:48:29.329Z,101316.06
2022-12-05T12:51:01.326Z,101309.65
2022-12-05T12:53:54.839Z,101307.08
2022-12-05T12:56:38.600Z,101306.15
2022-12-05T12:59:25.031Z,101302.77
2022-12-05T13:02:01.905Z,101310.31
2022-12-05T13:04:41.915Z,101309.03
2022-12-05T13:07:19.140Z,101311.31
2022-12-05T13:09:58.894Z,101310.23
2022-12-05T13:12:31.625Z,101318.04
2022-12-05T13:15:05.557Z,101319.10
2022-12-05T13:17:34.099Z,101310.38
2022-12-05T13:20:03.137Z,101317.97
2022-12-05T13:22:46.712Z,101318.30
2022-12-05T13:25:16.982Z,101314.40
2022-12-05T13:27:56.905Z,101312.04
2022-12-05T13:30:28.344Z,101311.89
2022-12-05T13:33:05.030Z,101312.31
2022-12-05T13:35:55.881Z,101308.27
2022-12-05T13:38:55.767Z,101312.00
2022-12-05T13:41:58.291Z,101311.00
2022-12-05T13:44:36.781Z,101312.37
2022-12-05T13:47:07.703Z,101310.56
2022-12-05T13:49:45.757Z,101309.35
2022-12-05T13:52:23.955Z,101307.63
2022-12-05T13:55:02.708Z,101305.36
2022-12-05T13:57:39.099Z,101302.86
2022-12-05T14:00:10.280Z,101304.88
2022-12-05T14:02:47.455Z,101302.80
2022-12-05T14:05:21.274Z,101303.01
2022-12-05T14:08:03.608Z,101305.05
2022-12-05T14:10:32.077Z,101307.27
2022-12-05T14:13:18.096Z,101307.08
2022-12-05T14:15:49.236Z,101303.56
2022-12-05T14:18:42.404Z,101301.48
2022-12-05T14:21:36.385Z,101302.10
2022-12-05T14:24:43.490Z,101297.77
2022-12-05T14:27:33.694Z,101296.08
2022-12-05T14:30:05.030Z,101291.45
2022-12-05T14:32:42.405Z,101285.73
2022-12-05T14:35:17.656Z,101283.75
2022-12-05T14:38:06.839Z,101285.59
2022-12-05T14:40:40.490Z,101283.29
2022-12-05T14:43:25.212Z,101285.90
2022-12-05T14:45:53.247Z,101286.04
2022-12-05T14:48:43.904Z,101285.33
2022-12-05T14:51:30.559Z,101286.36
2022-12-05T14:54:07.682Z,101283.98
2022-12-05T14:56:42.401Z,101286.42
2022-12-05T14:59:25.692Z,101291.63
2022-12-05T15:02:02.668Z,101291.96
2022-12-05T15:04:56.509Z,101290.46
2022-12-05T15:07:35.974Z,101288.08
2022-12-05T15:10:36.148Z,101294.02
2022-12-05T15:13:20.661Z,101292.52
2022-12-05T15:15:59.228Z,101288.86
2022-12-05T15:18:35.412Z,101288.19
2022-12-05T15:21:22.841Z,101285.14
2022-12-05T15:24:00.351Z,101284.45
2022-12-05T15:26:49.648Z,101281.32
2022-12-05T15:29:25.569Z,101279.41
2022-12-05T15:32:02.811Z,101281.52
2022-12-05T15:34:49.875Z,101278.15
2022-12-05T15:37:55.850Z,101275.63
2022-12-05T15:40:26.192Z,101272.73
2022-12-05T15:42:56.796Z,101272.18
2022-12-05T15:45:28.217Z,101269.09
2022-12-05T15:48:12.491Z,101265.98
2022-12-05T15:50:46.885Z,101263.11
2022-12-05T15:53:41.567Z,101259.38
2022-12-05T15:59:33.401Z,101257.73
2022-12-05T16:02:39.653Z,101259.02
2022-12-05T16:05:41.207Z,101260.32
2022-12-05T16:08:13.045Z,101263.92
2022-12-05T16:10:41.216Z,101265.17
2022-12-05T16:13:16.406Z,101261.10
2022-12-05T16:15:52.474Z,101263.30
2022-12-05T16:18:32.461Z,101266.81
2022-12-05T16:21:00.603Z,101260.25
2022-12-05T16:23:33.558Z,101256.33
2022-12-05T16:26:21.421Z,101259.79
2022-12-05T16:29:02.280Z,101258.95
2022-12-05T16:31:33.308Z,101253.10
2022-12-05T16:34:05.661Z,101250.46
2022-12-05T16:36:35.360Z,101253.46
2022-12-05T16:39:19.570Z,101258.45
2022-12-05T16:41:49.871Z,101255.05
2022-12-05T16:44:27.101Z,101252.52
2022-12-05T16:46:56.926Z,101261.31
2022-12-05T16:49:30.937Z,101261.40
2022-12-05T16:52:08.757Z,101258.00
2022-12-05T16:54:40.300Z,101258.86
2022-12-05T16:57:14.032Z,101262.77
2022-12-05T16:59:44.179Z,101263.95
2022-12-05T17:02:18.477Z,101265.96
2022-12-05T17:04:47.677Z,101263.26
2022-12-05T17:07:16.142Z,101260.64
2022-12-05T17:09:45.185Z,101266.96
2022-12-05T17:12:28.481Z,101267.62
2022-12-05T17:15:01.179Z,101262.31
2022-12-05T17:17:29.691Z,101261.84
2022-12-05T17:19:57.977Z,101258.52
2022-12-05T17:22:30.223Z,101264.47
2022-12-05T17:25:00.750Z,101263.22
2022-12-05T17:27:29.152Z,101263.70
2022-12-05T17:30:02.421Z,101264.27
2022-12-05T17:32:31.119Z,101266.75
2022-12-05T17:35:06.481Z,101262.56
2022-12-05T17:37:36.059Z,101262.65
2022-12-05T17:40:07.430Z,101266.31
2022-12-05T17:42:36.088Z,101266.88
2022-12-05T17:45:07.471Z,101263.78
2022-12-05T17:47:37.036Z,101264.45
2022-12-05T17:50:07.308Z,101262.46
2022-12-05T17:52:38.575Z,101261.31
2022-12-05T17:55:22.442Z,101257.10
2022-12-05T17:57:51.600Z,101251.83
2022-12-05T18:00:23.565Z,101253.40
2022-12-05T18:02:52.815Z,101250.38
2022-12-05T18:05:21.785Z,101248.59
2022-12-05T18:07:51.268Z,101248.10
2022-12-05T18:10:22.219Z,101248.11
2022-12-05T18:12:53.066Z,101246.91
2022-12-05T18:15:23.781Z,101249.36
2022-12-05T18:17:52.113Z,101251.19
2022-12-05T18:20:20.239Z,101253.86
2022-12-05T18:22:52.408Z,101252.64
2022-12-05T18:25:23.985Z,101256.21
2022-12-05T18:27:56.035Z,101252.89
2022-12-05T18:30:24.981Z,101250.42
2022-12-05T18:32:54.049Z,101251.52
2022-12-05T18:35:40.493Z,101255.15
2022-12-05T18:38:12.638Z,101251.45
2022-12-05T18:40:41.144Z,101249.30
2022-12-05T18:43:09.225Z,101246.18
2022-12-05T18:45:38.311Z,101248.02
2022-12-05T18:50:55.182Z,101237.86
2022-12-05T18:53:23.312Z,101239.60
2022-12-05T18:56:13.706Z,101235.78
2022-12-05T18:58:39.697Z,101237.79
2022-12-05T19:01:10.846Z,101241.73
2022-12-05T19:03:40.285Z,101233.60
2022-12-05T19:06:18.606Z,101237.58
2022-12-05T19:08:54.617Z,101238.30
2022-12-05T19:11:24.333Z,101238.06
2022-12-05T19:14:00.885Z,101236.97
2022-12-05T19:16:31.937Z,101240.94
2022-12-05T19:19:01.679Z,101239.46
2022-12-05T19:21:32.857Z,101240.06
2022-12-05T19:24:04.242Z,101238.23
2022-12-05T19:26:32.830Z,101239.48
2022-12-05T19:29:01.076Z,101237.27
2022-12-05T19:31:31.005Z,101235.89
2022-12-05T19:34:01.992Z,101235.46
2022-12-05T19:36:36.360Z,101234.20
2022-12-05T19:39:12.178Z,101230.33
2022-12-05T19:41:43.598Z,101234.46
2022-12-05T19:44:18.768Z,101233.80
2022-12-05T19:46:51.711Z,101236.27
2022-12-05T19:49:29.059Z,101237.94
2022-12-05T19:51:57.954Z,101238.48
2022-12-05T19:54:27.008Z,101237.88
2022-12-05T19:56:58.464Z,101236.77
2022-12-05T19:59:26.953Z,101234.05
2022-12-05T20:01:55.784Z,101227.15
2022-12-05T20:04:25.690Z,101229.30
2022-12-05T20:06:55.825Z,101223.84
2022-12-05T20:09:24.247Z,101225.07
2022-12-05T20:11:55.872Z,101224.77
2022-12-05T20:14:27.892Z,101223.14
2022-12-05T20:16:56.240Z,101226.11
2022-12-05T20:19:24.922Z,101222.17
2022-12-05T20:21:55.726Z,101222.67
2022-12-05T20:24:24.670Z,101219.18
2022-12-05T20:26:53.652Z,101219.20
2022-12-05T20:29:22.430Z,101217.86
2022-12-05T20:31:52.807Z,101214.09
2022-12-05T20:34:22.014Z,101214.09
2022-12-05T20:36:53.403Z,101212.48
2022-12-05T20:39:21.848Z,101214.96
2022-12-05T20:41:50.838Z,101219.67
2022-12-05T20:44:19.344Z,101221.03
2022-12-05T20:46:50.869Z,101223.70
2022-12-05T20:49:21.059Z,101223.52
2022-12-05T20:51:49.236Z,101223.34
2022-12-05T20:54:18.528Z,101218.23
2022-12-05T20:56:47.677Z,101217.77
2022-12-05T20:59:16.798Z,101212.44
2022-12-05T21:01:48.424Z,101214.08
2022-12-05T21:04:18.038Z,101211.92
2022-12-05T21:06:47.155Z,101215.91
2022-12-05T21:09:18.413Z,101216.08
2022-12-05T21:11:46.424Z,101210.59
2022-12-05T21:14:14.916Z,101207.69
2022-12-05T21:16:43.053Z,101204.13
2022-12-05T21:19:11.454Z,101201.36
2022-12-05T21:21:39.484Z,101201.27
2022-12-05T21:24:08.229Z,101200.34
2022-12-05T21:26:37.813Z,101198.41
2022-12-05T21:29:08.366Z,101200.19
2022-12-05T21:31:39.480Z,101196.94
2022-12-05T21:34:15.891Z,101196.71
2022-12-05T21:36:44.989Z,101198.06
2022-12-05T21:39:13.995Z,101204.96
2022-12-05T21:41:42.137Z,101196.74
2022-12-05T21:44:10.488Z,101196.44
2022-12-05T21:46:38.631Z,101195.14
2022-12-05T21:49:06.746Z,101199.48
2022-12-05T21:51:34.796Z,101198.95
2022-12-05T21:54:02.815Z,101191.89
2022-12-05T21:56:30.771Z,101195.27
2022-12-05T21:58:58.693Z,101193.08
2022-12-05T22:01:28.666Z,101194.38
2022-12-05T22:04:01.768Z,101193.21
2022-12-05T22:06:34.275Z,101186.27
2022-12-05T22:09:04.710Z,101186.98
2022-12-05T22:11:33.668Z,101183.40
2022-12-05T22:14:01.619Z,101181.30
2022-12-05T22:16:33.069Z,101178.39
2022-12-05T22:19:02.500Z,101180.10
2022-12-05T22:21:34.367Z,101177.98
2022-12-05T22:24:02.704Z,101177.14
2022-12-05T22:26:31.148Z,101179.92
2022-12-05T22:28:59.537Z,101174.05
2022-12-05T22:31:27.807Z,101174.25
2022-12-05T22:33:55.705Z,101180.54
2022-12-05T22:36:24.407Z,101177.70
2022-12-05T22:38:52.651Z,101183.00
2022-12-05T22:41:23.667Z,101173.63
2022-12-05T22:43:58.277Z,101173.33
2022-12-05T22:46:28.424Z,101173.29
2022-12-05T22:48:58.397Z,101171.44
2022-12-05T22:51:27.540Z,101171.14
2022-12-05T22:53:56.361Z,101168.59
2022-12-05T22:56:26.835Z,101163.55
2022-12-05T22:58:57.105Z,101166.34
2022-12-05T23:01:30.813Z,101165.56
2022-12-05T23:04:01.906Z,101161.17
2022-12-05T23:06:31.756Z,101157.84
2022-12-05T23:09:00.549Z,101158.00
2022-12-05T23:11:30.809Z,101156.40
2022-12-05T23:14:02.214Z,101151.95
2022-12-05T23:16:32.824Z,101148.67
2022-12-05T23:19:04.657Z,101148.77
2022-12-05T23:21:40.382Z,101145.79
2022-12-05T23:24:11.626Z,101139.02
2022-12-05T23:26:42.420Z,101136.38
2022-12-05T23:29:12.499Z,101132.67
2022-12-05T23:31:42.112Z,101130.64
2022-12-05T23:34:11.130Z,101131.00
2022-12-05T23:36:41.298Z,101118.79
2022-12-05T23:39:09.421Z,101119.34
2022-12-05T23:41:37.337Z,101118.80
2022-12-05T23:44:05.114Z,101115.61
2022-12-05T23:46:32.995Z,101104.16
2022-12-05T23:49:01.008Z,101101.27
2022-12-05T23:51:30.970Z,101100.68
2022-12-05T23:54:01.086Z,101096.76
2022-12-05T23:56:32.420Z,101098.70
2022-12-05T23:59:01.904Z,101098.47
